• Join FlightAware (Why Join?)
  • Login
  • US Flag 
01:36AM EDT


 

Airport Tracker/Info


-or-


 

Live Flight TrackerFlight Track Log ✈ DAL4165 ✈ 30-Apr-2013 ✈ KOKC - KATL

Flight Track Log - Related Links

Times and Time Zones

All times are in EDT time to prevent confusion due to time zone crossing. See the DAL4165 flight status page for this flight to view local times or setup timezone preferences in your user account.

Time Position Orientation Groundspeed Altitude Reporting Facility
EDT Latitude Longitude Course Direction KTS MPH feet Rate Location/Type
07:11PM 35.3789 -97.5944 90° East 139 160 1,700  Level Fort Worth Center
07:12PM 35.3331 -97.5483 141° Southeast 152 175 4,200 1,740 Climbing Fort Worth Center
07:13PM 35.3311 -97.4644 92° East 181 208 6,100 2,340 Climbing Fort Worth Center
07:14PM 35.4000 -97.0554 90° East  Level FlightAware Approximate
07:14PM 35.3333 -97.3550 89° East 243 280 8,900  Level Fort Worth Center
07:15PM 35.4000 -96.9190 90° East  Level FlightAware Approximate
07:15PM 35.3414 -97.2533 84° East 277 319 10,400  Level Fort Worth Center
07:16PM 35.4000 -96.7826 90° East  Level FlightAware Approximate
07:16PM 35.3414 -97.1311 90° East 316 364 11,500  Level Fort Worth Center
07:17PM 35.3431 -97.0014 89° East 356 410 13,000 1,560 Climbing Fort Worth Center
07:18PM 35.3403 -96.8664 91° East 380 437 14,700 1,680 Climbing Fort Worth Center
07:19PM 35.3356 -96.7214 92° East 401 461 16,400 1,620 Climbing Fort Worth Center
07:20PM 35.3325 -96.5789 91° East 413 475 18,000 1,560 Climbing Fort Worth Center
07:21PM 35.3314 -96.4314 90° East 420 483 19,600 1,500 Climbing Fort Worth Center
07:22PM 35.3261 -96.2839 92° East 425 489 21,100 1,500 Climbing Fort Worth Center
07:23PM 35.3225 -96.1311 92° East 436 502 22,600 1,380 Climbing Fort Worth Center
07:24PM 35.3208 -95.9811 91° East 441 507 23,900 1,080 Climbing Fort Worth Center
07:25PM 35.3172 -95.8439 92° East 441 507 24,800 900 Climbing Fort Worth Center
07:26PM 35.3131 -95.6861 92° East 441 507 25,800 960 Climbing Fort Worth Center
07:27PM 35.3086 -95.5286 92° East 452 520 26,800 420 Climbing Fort Worth Center
07:29PM 35.2994 -95.2492 92° East 486 559 27,000 60 Climbing Memphis Center
07:30PM 35.2931 -95.0886 93° East 479 551 27,000  Level Memphis Center
07:31PM 35.2867 -94.9256 93° East 479 551 27,000  Level Memphis Center
07:32PM 35.2819 -94.7675 92° East 479 551 27,000  Level Memphis Center
07:33PM 35.2775 -94.5994 92° East 485 558 27,000  Level Memphis Center
07:34PM 35.2700 -94.4414 93° East 477 549 27,000  Level Memphis Center
07:35PM 35.2647 -94.2836 92° East 471 542 27,000  Level Memphis Center
07:36PM 35.2572 -94.1256 93° East 471 542 27,000  Level Memphis Center
07:37PM 35.2514 -93.9675 93° East 464 534 27,000  Level Memphis Center
07:38PM 35.2433 -93.8097 94° East 464 534 27,000  Level Memphis Center
07:39PM 35.2392 -93.6544 92° East 464 534 27,000  Level Memphis Center
07:40PM 35.2289 -93.4939 94° East 464 534 27,000  Level Memphis Center
07:41PM 35.2236 -93.3692 93° East 464 534 27,000  Level Memphis Center
07:42PM 35.2192 -93.2036 92° East 459 528 27,000  Level Memphis Center
07:43PM 35.2100 -93.0483 94° East 464 534 27,000  Level Memphis Center
07:44PM 35.2008 -92.8906 94° East 459 528 27,000  Level Memphis Center
07:45PM 35.1936 -92.7303 93° East 460 529 27,000  Level Memphis Center
07:46PM 35.1819 -92.5700 95° East 473 544 27,000  Level Memphis Center
07:47PM 35.1742 -92.4122 93° East 467 537 27,000  Level Memphis Center
07:48PM 35.1661 -92.2544 94° East 462 532 27,000  Level Memphis Center
07:49PM 35.1581 -92.0969 94° East 462 532 27,000  Level Memphis Center
07:50PM 35.1497 -91.9392 94° East 462 532 27,000  Level Memphis Center
07:51PM 35.1392 -91.7842 95° East 462 532 27,000  Level Memphis Center
07:52PM 35.1283 -91.6239 95° East 462 532 27,000  Level Memphis Center
07:53PM 35.1194 -91.4639 94° East 467 537 27,000  Level Memphis Center
07:54PM 35.1103 -91.3114 94° East 456 525 27,000  Level Memphis Center
07:55PM 35.0986 -91.1539 95° East 461 531 27,000  Level Memphis Center
07:56PM 35.0892 -90.9967 94° East 461 531 27,000  Level Memphis Center
07:57PM 35.0794 -90.8367 94° East 461 531 27,000  Level Memphis Center
07:58PM 35.0675 -90.6817 95° East 461 531 27,000  Level Memphis Center
07:59PM 35.0572 -90.5219 94° East 461 531 27,000  Level Memphis Center
08:00PM 35.0450 -90.3494 95° East 461 531 27,000  Level Memphis Center
08:01PM 35.0322 -90.1897 96° East 468 539 27,000  Level Memphis Center
08:02PM 35.0214 -90.0300 95° East 468 539 27,000  Level Memphis Center
08:03PM 35.0042 -89.8728 98° East 468 539 27,000  Level Memphis Center
08:04PM 34.9806 -89.7108 100° East 473 544 27,000  Level Memphis Center
08:05PM 34.9569 -89.5667 101° East 478 550 27,000  Level Memphis Center
08:06PM 34.9328 -89.4122 101° East 473 544 27,000  Level Memphis Center
08:07PM 34.9086 -89.2506 100° East 473 544 27,000  Level Memphis Center
08:08PM 34.8842 -89.0964 101° East 468 539 27,000  Level Memphis Center
08:09PM 34.8572 -88.9222 101° East 468 539 27,000  Level Memphis Center
08:10PM 34.8344 -88.7683 100° East 468 539 27,000  Level Memphis Center
08:11PM 34.8072 -88.6069 102° East 468 539 27,000  Level Memphis Center
08:12PM 34.7819 -88.4581 102° East 459 528 27,000  Level Memphis Center
08:13PM 34.7586 -88.2969 100° East 464 534 27,000  Level Memphis Center
08:14PM 34.7328 -88.1333 101° East 477 549 27,000  Level Memphis Center
08:15PM 34.7089 -87.9747 100° East 483 556 27,000  Level Memphis Center
08:16PM 34.6808 -87.8164 102° East 483 556 27,000  Level Memphis Center
08:17PM 34.6586 -87.6581 100° East 483 556 27,000 -420 Level Memphis Center
08:19PM 34.6108 -87.3778 102° East 449 517 25,900 -720 Descending Atlanta Center
08:20PM 34.5797 -87.2150 103° East 449 517 25,000 -480 Descending Atlanta Center
08:21PM 34.5522 -87.0703 103° East 449 517 25,000  Level Atlanta Center
08:22PM 34.5242 -86.9306 104° East 444 511 25,000  Level Atlanta Center
08:23PM 34.4981 -86.7936 103° East 427 491 25,000  Level Atlanta Center
08:24PM 34.4700 -86.6517 103° East 427 491 25,000  Level Atlanta Center
08:25PM 34.4414 -86.5147 104° East 421 484 25,000  Level Atlanta Center
08:26PM 34.4150 -86.3731 103° East 421 484 25,000  Level Atlanta Center
08:27PM 34.3883 -86.2286 103° East 421 484 25,000  Level Atlanta Center
08:28PM 34.3594 -86.0869 104° East 426 490 25,000 -360 Level Atlanta Center
08:29PM 34.3325 -85.9481 103° East 426 490 24,300 -780 Descending Atlanta Center
08:30PM 34.3053 -85.8142 104° East 421 484 23,500 -960 Descending Atlanta Center
08:31PM 34.2800 -85.6831 103° East 407 468 22,400 -1,560 Descending Atlanta Center
08:32PM 34.2525 -85.5517 104° East 401 461 20,400 -2,100 Descending Atlanta Center
08:33PM 34.2267 -85.4331 105° East 384 442 18,300 -1,980 Descending Atlanta Center
08:34PM 34.2050 -85.3172 103° East 366 421 16,500 -1,740 Descending Atlanta Center
08:35PM 34.1792 -85.2014 105° East 356 410 14,900 -1,620 Descending Atlanta Center
08:36PM 34.1403 -85.0928 113° Southeast 356 410 13,300 -960 Descending Atlanta Center
08:37PM 34.0783 -85.0094 132° Southeast 344 396 13,000 -840 Descending Atlanta Center
08:38PM 34.0206 -84.9386 135° Southeast 316 364 11,700 -1,500 Descending Atlanta Center
08:39PM 33.9628 -84.8653 134° Southeast 303 349 10,100 -1,320 Descending Atlanta Center
08:40PM 33.9022 -84.8297 154° Southeast 290 334 9,100 -900 Descending Atlanta Center
08:41PM 33.8292 -84.8292 180° South 261 300 8,400 -1,200 Descending Atlanta Center
08:42PM 33.7500 -84.8167 173° South 252 290 6,600 -1,440 Descending Atlanta TRACON
08:43PM 33.6833 -84.8000 168° South 253 291 5,500 -900 Descending Atlanta TRACON
08:44PM 33.6667 -84.7333 107° East 183 211 4,900 -600 Descending Atlanta TRACON
08:45PM 33.6500 -84.6667 107° East 170 196 4,300 -420 Descending Atlanta TRACON
08:46PM 33.6500 -84.6167 90° East 167 192 4,100 -600 Descending Atlanta TRACON
08:47PM 33.6500 -84.5667 90° East 162 186 3,200 -900 Descending Atlanta TRACON